KBIE

Details ICAO KBIE
Name BEATRICE MUNI
Region United States
Timezone America/Chicago (UTC-5.0)
Plans Departing 6
Arriving 2
Stats Elevation 1,324 ft / 404 m (AMSL)
Location 40.301190° -96.754295°
Runways 2
Magnetic Variation 3.123° E
Sunrise 2018-05-26 11:03:54 UTC / 2018-05-26 06:03:54 Local
Sunset 2018-05-27 01:47:09 UTC / 2018-05-26 20:47:09 Local
Advertisement - Login to hide

Runways

ID Width Length Bearing (true) Bearing (mag) Surface Threshold Offset Overrun Length
13 98 ft / 30 m 4,376 ft / 1,334 m 143.70° 140.58° Asphalt 0 ft / 0 m 0 ft / 0 m
17 98 ft / 30 m 5,611 ft / 1,710 m 179.60° 176.48° Asphalt 0 ft / 0 m 0 ft / 0 m
31 98 ft / 30 m 4,376 ft / 1,334 m 323.70° 320.58° Asphalt 0 ft / 0 m 0 ft / 0 m
35 98 ft / 30 m 5,611 ft / 1,710 m 359.60° 356.48° Asphalt 0 ft / 0 m 0 ft / 0 m

Map

Weather


0- 5 10 15 20 25 30 35+ Temperature / ° C

Clouds and Precipitation
Forecast for 2018-05-26 12:00 UTC. Updated 5 hours ago

Ground ~20,000 ft ~40,000 ft Winds

METAR

KBIE 261555Z AUTO 28008KT 10SM CLR 32/18 A2982 RMK AO2 T03240184

TAF

Not found

Frequencies

Unicom 122.80 MHz CTAF/UNICOM
Warning: Do not use this data for real-world aviation or navigation. No guarantee of current accuracy is given.